Time;durP1;ratioP1;P1;durP2;ratioP2;P2;SDS_P1;SDS_P2;PMS_P1;PMS_P2;Temp;Humidity;BMP_temperature;BMP_pressure;BME280_temperature;BME280_humidity;BME280_pressure;Samples;Min_cycle;Max_cycle;Signal;HPM_P1;HPM_P2
2023/02/06 00:00:50;;;;;;;0.67;0.67;;;5.60;81.20;;;;;;6089251;23;20832;-78
2023/02/06 00:03:19;;;;;;;1.00;0.60;;;5.50;86.00;;;;;;6087598;23;20383;-77
2023/02/06 00:05:56;;;;;;;0.70;0.70;;;5.40;87.90;;;;;;6102324;23;20458;-78
2023/02/06 00:08:24;;;;;;;0.70;0.70;;;5.30;89.20;;;;;;6092703;23;20377;-77
2023/02/06 00:10:52;;;;;;;0.90;0.70;;;5.20;90.20;;;;;;6116937;23;20409;-77
2023/02/06 00:13:19;;;;;;;0.70;0.70;;;5.20;90.00;;;;;;6118696;23;20425;-78
2023/02/06 00:15:46;;;;;;;1.45;1.00;;;5.20;89.80;;;;;;6091876;23;20388;-77
2023/02/06 00:18:13;;;;;;;0.90;0.90;;;5.10;90.30;;;;;;6093420;23;20388;-77
2023/02/06 00:20:39;;;;;;;0.90;0.90;;;5.10;90.50;;;;;;6116115;23;20366;-77
2023/02/06 00:23:06;;;;;;;0.60;0.60;;;5.00;91.90;;;;;;6117739;23;20361;-77
2023/02/06 00:25:33;;;;;;;0.60;0.60;;;4.90;93.70;;;;;;6116613;23;20683;-77
2023/02/06 00:28:00;;;;;;;0.73;0.73;;;4.80;94.70;;;;;;6091104;23;20433;-77
2023/02/06 00:30:27;;;;;;;1.00;1.00;;;4.80;94.60;;;;;;6091580;23;20394;-77
2023/02/06 00:32:54;;;;;;;0.60;0.60;;;4.80;94.60;;;;;;6117465;23;20385;-77
2023/02/06 00:35:21;;;;;;;0.50;0.50;;;4.80;94.10;;;;;;6117762;23;20826;-77
2023/02/06 00:37:49;;;;;;;0.65;0.65;;;4.90;93.10;;;;;;6091938;23;20365;-77
2023/02/06 00:40:16;;;;;;;0.55;0.55;;;5.00;92.20;;;;;;6092162;23;20377;-77
2023/02/06 00:42:43;;;;;;;0.50;0.50;;;5.00;91.80;;;;;;6116823;23;20382;-77
2023/02/06 00:45:10;;;;;;;0.60;0.60;;;5.00;92.10;;;;;;6118039;23;20858;-77
2023/02/06 00:47:37;;;;;;;0.70;0.70;;;4.90;91.90;;;;;;6118035;23;20361;-77
2023/02/06 00:50:04;;;;;;;0.80;0.80;;;4.90;91.60;;;;;;6091105;23;20405;-77
2023/02/06 00:52:31;;;;;;;0.50;0.50;;;4.90;91.10;;;;;;6117882;23;20762;-77
2023/02/06 00:54:58;;;;;;;1.00;0.47;;;5.00;89.10;;;;;;6092518;23;20365;-77
2023/02/06 00:57:25;;;;;;;0.60;0.60;;;5.00;87.70;;;;;;6116310;23;20382;-77
2023/02/06 00:59:53;;;;;;;0.50;0.50;;;5.00;89.50;;;;;;6115157;23;20361;-77
2023/02/06 01:02:20;;;;;;;0.50;0.50;;;4.90;90.50;;;;;;6092115;23;20361;-77
2023/02/06 01:04:47;;;;;;;1.13;0.57;;;4.90;90.80;;;;;;6118180;23;20357;-77
2023/02/06 01:07:13;;;;;;;0.63;0.60;;;4.80;91.00;;;;;;6093697;23;20360;-77
2023/02/06 01:09:40;;;;;;;0.63;0.63;;;4.80;90.70;;;;;;6093281;23;20363;-77
2023/02/06 01:12:07;;;;;;;0.55;0.55;;;4.70;90.60;;;;;;6118219;23;20381;-77
2023/02/06 01:14:34;;;;;;;0.68;0.68;;;4.70;90.40;;;;;;6118739;23;20683;-76
2023/02/06 01:17:01;;;;;;;0.60;0.60;;;4.70;90.40;;;;;;6092507;23;20438;-77
2023/02/06 01:19:28;;;;;;;0.70;0.70;;;4.80;90.10;;;;;;6094468;23;20362;-77
2023/02/06 01:21:55;;;;;;;0.60;0.60;;;4.80;89.40;;;;;;6091376;23;20386;-77
2023/02/06 01:24:22;;;;;;;0.70;0.70;;;4.80;88.00;;;;;;6094233;23;20381;-77
2023/02/06 01:26:49;;;;;;;0.60;0.60;;;4.80;86.80;;;;;;6091718;23;20381;-77
2023/02/06 01:29:16;;;;;;;1.35;0.70;;;4.90;86.80;;;;;;6093415;23;20365;-76
2023/02/06 01:31:43;;;;;;;0.70;0.70;;;4.90;87.40;;;;;;6117733;23;20409;-77
2023/02/06 01:34:11;;;;;;;0.70;0.70;;;4.90;88.20;;;;;;6080028;23;20371;-77
2023/02/06 01:36:38;;;;;;;0.63;0.63;;;4.90;88.30;;;;;;6091910;23;20817;-77
2023/02/06 01:39:06;;;;;;;0.60;0.60;;;4.90;88.20;;;;;;6090354;23;20903;-77
2023/02/06 01:41:33;;;;;;;0.60;0.60;;;4.90;88.20;;;;;;6093299;23;20378;-77
2023/02/06 01:44:15;;;;;;;0.70;0.70;;;4.90;87.70;;;;;;6092268;23;20362;-78
2023/02/06 01:46:48;;;;;;;0.60;0.60;;;4.90;87.20;;;;;;6093437;23;20417;-77
2023/02/06 01:49:37;;;;;;;0.70;0.60;;;5.00;86.00;;;;;;6081188;23;20354;-77
2023/02/06 01:52:20;;;;;;;0.70;0.70;;;5.10;85.10;;;;;;6093044;23;20369;-77
2023/02/06 01:54:56;;;;;;;0.80;0.80;;;5.10;86.00;;;;;;6116964;23;20370;-77
2023/02/06 01:57:26;;;;;;;0.60;0.60;;;5.00;86.20;;;;;;6118104;23;20365;-77
2023/02/06 01:59:57;;;;;;;0.70;0.70;;;5.00;86.60;;;;;;6093026;23;20369;-76
2023/02/06 02:02:27;;;;;;;0.63;0.63;;;5.00;86.80;;;;;;6043764;23;20380;-75
2023/02/06 21:54:45;;;;;;;0.73;0.73;;;3.40;99.90;;;;;;6008319;23;20390;-80
2023/02/06 21:57:12;;;;;;;0.90;0.90;;;3.50;99.90;;;;;;6031460;23;20469;-79
2023/02/06 21:59:40;;;;;;;0.93;0.93;;;3.50;99.90;;;;;;5982498;23;20392;-78
2023/02/06 22:02:13;;;;;;;1.30;1.00;;;3.50;99.90;;;;;;6003973;23;20380;-78
2023/02/06 22:04:40;;;;;;;0.90;0.90;;;3.40;99.90;;;;;;5981296;23;20709;-78
2023/02/06 22:07:08;;;;;;;0.90;0.90;;;3.30;99.90;;;;;;6003067;23;20388;-77
2023/02/06 22:09:35;;;;;;;1.00;1.00;;;3.30;99.90;;;;;;5980799;23;20384;-79
2023/02/06 22:12:06;;;;;;;1.00;1.00;;;3.10;99.90;;;;;;6003015;23;20388;-78
2023/02/06 22:14:37;;;;;;;0.85;0.80;;;3.00;99.90;;;;;;5981554;23;20384;-79
2023/02/06 22:17:05;;;;;;;1.10;1.10;;;3.00;99.90;;;;;;6001093;23;20407;-79
2023/02/06 22:19:36;;;;;;;0.90;0.90;;;3.10;99.90;;;;;;6001707;23;20392;-79
2023/02/06 22:22:04;;;;;;;1.00;1.00;;;3.00;99.90;;;;;;5988727;23;20444;-78
2023/02/06 22:24:33;;;;;;;1.00;1.00;;;3.00;99.90;;;;;;5977115;23;20758;-79
2023/02/06 22:27:02;;;;;;;0.93;0.93;;;2.90;99.90;;;;;;5975556;23;20414;-79
2023/02/06 22:29:32;;;;;;;1.00;1.00;;;2.80;99.90;;;;;;6001988;23;20440;-79
2023/02/06 22:32:03;;;;;;;1.10;1.00;;;2.80;99.90;;;;;;6001093;23;20412;-79
2023/02/06 22:34:31;;;;;;;1.27;1.27;;;2.80;99.90;;;;;;5990117;23;20548;-79
2023/02/06 22:36:58;;;;;;;1.20;1.20;;;2.80;99.90;;;;;;5995417;23;20396;-79
2023/02/06 22:39:27;;;;;;;1.10;1.10;;;2.80;99.90;;;;;;6001761;23;20810;-79
2023/02/06 22:41:54;;;;;;;1.05;1.05;;;2.80;99.90;;;;;;6000814;23;20396;-80
2023/02/06 22:44:21;;;;;;;1.00;1.00;;;2.90;99.90;;;;;;6001500;23;20380;-79
2023/02/06 22:46:51;;;;;;;1.00;1.00;;;2.90;99.90;;;;;;5968647;24;20853;-80
2023/02/06 22:49:20;;;;;;;1.00;1.00;;;3.10;99.90;;;;;;6001229;23;20430;-80
2023/02/06 22:51:47;;;;;;;0.93;0.93;;;3.00;99.90;;;;;;6000420;23;20388;-80
2023/02/06 22:54:15;;;;;;;1.10;1.10;;;3.00;99.90;;;;;;6045010;23;20371;-79
2023/02/06 22:56:43;;;;;;;1.00;1.00;;;2.80;99.90;;;;;;6061259;23;20474;-79
2023/02/06 22:59:13;;;;;;;1.08;1.08;;;2.70;99.90;;;;;;6061451;23;20768;-79
2023/02/06 23:01:52;;;;;;;1.15;1.13;;;2.70;99.90;;;;;;6052561;23;20906;-79
2023/02/06 23:04:33;;;;;;;1.20;1.10;;;2.70;99.90;;;;;;6059361;23;20821;-79
2023/02/06 23:07:01;;;;;;;1.10;1.10;;;2.70;99.90;;;;;;6060428;23;20387;-79
2023/02/06 23:09:31;;;;;;;1.10;1.10;;;2.60;99.90;;;;;;6040000;23;20439;-80
2023/02/06 23:12:00;;;;;;;1.15;1.15;;;2.60;99.90;;;;;;6062583;23;20430;-79
2023/02/06 23:14:28;;;;;;;1.00;1.00;;;2.60;99.90;;;;;;6063565;23;20417;-80
2023/02/06 23:17:00;;;;;;;0.90;0.90;;;2.60;99.90;;;;;;6063886;23;20460;-79
2023/02/06 23:19:28;;;;;;;1.15;1.10;;;2.50;99.90;;;;;;6038573;23;20995;-80
2023/02/06 23:21:56;;;;;;;1.20;1.10;;;2.50;99.90;;;;;;6063627;23;20426;-78
2023/02/06 23:24:24;;;;;;;0.90;0.90;;;2.40;99.90;;;;;;6062166;23;20516;-79
2023/02/06 23:26:53;;;;;;;1.25;1.05;;;2.50;99.90;;;;;;6066540;23;20395;-80
2023/02/06 23:29:21;;;;;;;0.93;0.93;;;2.60;99.90;;;;;;6065569;23;20422;-81
2023/02/06 23:31:49;;;;;;;0.80;0.80;;;2.50;99.90;;;;;;6066313;23;20437;-80
2023/02/06 23:34:18;;;;;;;0.93;0.93;;;2.40;99.90;;;;;;6064002;23;20421;-80
2023/02/06 23:36:45;;;;;;;0.90;0.90;;;2.50;99.90;;;;;;6065836;23;20803;-79
2023/02/06 23:39:13;;;;;;;0.90;0.90;;;2.50;99.90;;;;;;6064403;23;20387;-79
2023/02/06 23:41:41;;;;;;;0.93;0.93;;;2.60;99.90;;;;;;6066066;23;20742;-80
2023/02/06 23:44:27;;;;;;;0.80;0.80;;;2.50;99.90;;;;;;6045467;23;20430;-81
2023/02/06 23:46:55;;;;;;;0.80;0.80;;;2.50;99.90;;;;;;6066149;23;20720;-81
2023/02/06 23:49:21;;;;;;;1.00;1.00;;;2.50;99.90;;;;;;6051861;23;20479;-80
2023/02/06 23:51:50;;;;;;;0.80;0.80;;;2.50;99.90;;;;;;6089700;23;20851;-81
2023/02/06 23:54:17;;;;;;;0.90;0.90;;;2.40;99.90;;;;;;6064128;23;20745;-81
2023/02/06 23:56:45;;;;;;;0.90;0.90;;;2.30;99.90;;;;;;6041983;23;20391;-81
2023/02/06 23:59:12;;;;;;;0.90;0.90;;;2.40;99.90;;;;;;6066198;23;20520;-81
